createdAt,value
2023-03-22T00:01:31.065Z,4.87
2023-03-22T00:03:59.334Z,3.85
2023-03-22T00:06:27.268Z,4.13
2023-03-22T00:08:56.000Z,5.35
2023-03-22T00:11:25.771Z,5.07
2023-03-22T00:13:55.232Z,5.45
2023-03-22T00:16:23.761Z,3.70
2023-03-22T00:18:51.556Z,4.60
2023-03-22T00:21:19.839Z,6.30
2023-03-22T00:23:47.537Z,4.57
2023-03-22T00:26:15.668Z,4.67
2023-03-22T00:28:44.144Z,4.30
2023-03-22T00:31:13.213Z,3.90
2023-03-22T00:33:41.330Z,4.10
2023-03-22T00:36:11.730Z,4.00
2023-03-22T00:38:42.996Z,4.20
2023-03-22T00:41:13.495Z,4.05
2023-03-22T00:43:41.527Z,3.78
2023-03-22T00:46:09.910Z,3.78
2023-03-22T00:48:39.543Z,4.47
2023-03-22T00:51:07.907Z,4.22
2023-03-22T00:53:36.486Z,4.07
2023-03-22T00:56:04.985Z,3.60
2023-03-22T00:58:32.859Z,3.95
2023-03-22T01:01:00.776Z,3.80
2023-03-22T01:03:28.561Z,3.70
2023-03-22T01:05:57.916Z,3.47
2023-03-22T01:08:25.902Z,3.47
2023-03-22T01:10:53.610Z,3.60
2023-03-22T01:13:21.467Z,3.63
2023-03-22T01:15:51.311Z,4.63
2023-03-22T01:18:19.745Z,3.67
2023-03-22T01:20:47.656Z,3.47
2023-03-22T01:23:16.725Z,3.28
2023-03-22T01:25:44.571Z,3.22
2023-03-22T01:28:12.216Z,3.53
2023-03-22T01:30:41.032Z,3.50
2023-03-22T01:33:09.664Z,3.72
2023-03-22T01:35:37.824Z,3.40
2023-03-22T01:38:06.050Z,3.70
2023-03-22T01:40:35.328Z,3.50
2023-03-22T01:43:03.945Z,3.42
2023-03-22T01:45:43.634Z,3.60
2023-03-22T01:48:18.302Z,3.70
2023-03-22T01:50:56.009Z,3.90
2023-03-22T01:53:26.413Z,3.60
2023-03-22T01:55:58.687Z,3.70
2023-03-22T01:58:26.874Z,3.70
2023-03-22T02:00:55.151Z,3.70
2023-03-22T02:03:31.474Z,4.03
2023-03-22T02:05:59.148Z,3.40
2023-03-22T02:08:27.059Z,3.25
2023-03-22T02:10:56.156Z,3.65
2023-03-22T02:13:39.481Z,3.50
2023-03-22T02:16:23.656Z,3.10
2023-03-22T02:19:05.488Z,3.33
2023-03-22T02:22:10.906Z,3.50
2023-03-22T02:25:01.978Z,4.30
2023-03-22T02:27:50.285Z,4.00
2023-03-22T02:30:50.419Z,3.72
2023-03-22T02:33:41.533Z,4.38
2023-03-22T02:36:42.869Z,4.15
2023-03-22T02:39:33.285Z,4.13
2023-03-22T02:42:20.774Z,3.95
2023-03-22T02:44:57.229Z,3.90
2023-03-22T02:47:34.265Z,3.45
2023-03-22T02:50:09.873Z,3.50
2023-03-22T02:52:41.847Z,4.18
2023-03-22T02:55:17.142Z,4.15
2023-03-22T02:57:49.694Z,3.80
2023-03-22T03:00:20.990Z,4.68
2023-03-22T03:02:51.860Z,4.68
2023-03-22T03:05:21.842Z,4.80
2023-03-22T03:07:53.415Z,4.85
2023-03-22T03:10:24.141Z,4.50
2023-03-22T03:12:51.837Z,4.63
2023-03-22T03:15:22.005Z,4.65
2023-03-22T03:18:11.578Z,4.70
2023-03-22T03:20:52.157Z,4.28
2023-03-22T03:23:31.171Z,4.63
2023-03-22T03:26:07.265Z,4.35
2023-03-22T03:28:39.830Z,4.55
2023-03-22T03:31:19.654Z,4.78
2023-03-22T03:33:56.881Z,4.70
2023-03-22T03:36:27.897Z,4.70
2023-03-22T03:38:57.870Z,4.60
2023-03-22T03:41:30.002Z,4.93
2023-03-22T03:43:59.028Z,4.30
2023-03-22T03:46:26.746Z,4.20
2023-03-22T03:48:56.686Z,4.15
2023-03-22T03:51:24.422Z,4.72
2023-03-22T03:53:52.132Z,4.63
2023-03-22T03:56:19.821Z,5.00
2023-03-22T03:58:49.105Z,4.90
2023-03-22T04:01:19.612Z,4.80
2023-03-22T04:03:50.501Z,4.30
2023-03-22T04:06:18.226Z,4.40
2023-03-22T04:08:46.506Z,4.30
2023-03-22T04:11:14.298Z,5.30
2023-03-22T04:13:42.078Z,4.38
2023-03-22T04:16:11.546Z,4.90
2023-03-22T04:18:39.319Z,4.68
2023-03-22T04:21:07.690Z,4.32
2023-03-22T04:23:35.447Z,4.53
2023-03-22T04:26:03.846Z,4.70
2023-03-22T04:28:33.869Z,4.00
2023-03-22T04:31:03.936Z,4.30
2023-03-22T04:33:39.176Z,4.28
2023-03-22T04:36:10.217Z,4.30
2023-03-22T04:38:39.537Z,4.28
2023-03-22T04:41:07.802Z,4.00
2023-03-22T04:43:35.590Z,4.55
2023-03-22T04:46:03.442Z,4.32
2023-03-22T04:48:31.342Z,4.60
2023-03-22T04:51:04.011Z,5.00
2023-03-22T04:53:32.082Z,4.57
2023-03-22T04:56:00.051Z,4.50
2023-03-22T04:58:28.431Z,4.22
2023-03-22T05:00:56.193Z,4.45
2023-03-22T05:03:24.172Z,4.38
2023-03-22T05:05:53.598Z,4.85
2023-03-22T05:08:24.970Z,5.00
2023-03-22T05:10:53.619Z,4.80
2023-03-22T05:13:21.928Z,4.18
2023-03-22T05:15:50.225Z,3.70
2023-03-22T05:18:20.529Z,4.10
2023-03-22T05:20:49.130Z,4.70
2023-03-22T05:23:19.259Z,4.28
2023-03-22T05:25:49.364Z,3.80
2023-03-22T05:28:19.465Z,3.47
2023-03-22T05:30:47.244Z,2.97
2023-03-22T05:33:16.762Z,3.25
2023-03-22T05:35:44.855Z,3.10
2023-03-22T05:38:12.548Z,3.00
2023-03-22T05:40:40.978Z,2.70
2023-03-22T05:43:10.814Z,2.80
2023-03-22T05:45:38.544Z,2.88
2023-03-22T05:48:06.948Z,2.70
2023-03-22T05:50:35.549Z,2.38
2023-03-22T05:53:03.925Z,2.60
2023-03-22T05:55:32.208Z,2.72
2023-03-22T05:58:01.306Z,2.83
2023-03-22T06:00:32.018Z,2.20
2023-03-22T06:03:03.686Z,2.40
2023-03-22T06:05:32.702Z,2.60
2023-03-22T06:08:00.886Z,2.50
2023-03-22T06:10:28.771Z,2.42
2023-03-22T06:12:56.568Z,2.33
2023-03-22T06:15:24.443Z,2.20
2023-03-22T06:17:53.514Z,2.30
2023-03-22T06:20:21.269Z,2.33
2023-03-22T06:22:49.040Z,2.33
2023-03-22T06:25:17.808Z,2.03
2023-03-22T06:27:45.563Z,2.10
2023-03-22T06:30:13.778Z,2.30
2023-03-22T06:32:41.539Z,2.30
2023-03-22T06:35:11.117Z,2.08
2023-03-22T06:37:38.916Z,2.22
2023-03-22T06:40:08.407Z,1.88
2023-03-22T06:42:36.988Z,2.10
2023-03-22T06:45:06.114Z,1.80
2023-03-22T06:47:33.781Z,2.00
2023-03-22T06:50:01.475Z,1.80
2023-03-22T06:52:30.547Z,1.55
2023-03-22T06:54:58.211Z,1.90
2023-03-22T06:57:26.317Z,1.70
2023-03-22T06:59:54.001Z,1.77
2023-03-22T07:02:21.822Z,1.73
2023-03-22T07:04:49.471Z,1.77
2023-03-22T07:07:17.386Z,1.77
2023-03-22T07:09:46.383Z,1.80
2023-03-22T07:12:14.500Z,1.60
2023-03-22T07:14:42.579Z,1.70
2023-03-22T07:17:12.540Z,1.50
2023-03-22T07:19:41.845Z,1.50
2023-03-22T07:22:09.858Z,1.80
2023-03-22T07:24:44.750Z,1.50
2023-03-22T07:27:19.292Z,1.70
2023-03-22T07:29:46.986Z,1.45
2023-03-22T07:32:14.820Z,1.20
2023-03-22T07:34:42.724Z,1.40
2023-03-22T07:37:10.815Z,1.20
2023-03-22T07:39:38.651Z,1.20
2023-03-22T07:42:06.909Z,1.20
2023-03-22T07:44:36.252Z,1.10
2023-03-22T07:47:04.059Z,1.10
2023-03-22T07:49:32.292Z,1.10
2023-03-22T07:52:00.476Z,1.10
2023-03-22T07:54:33.763Z,1.20
2023-03-22T07:57:03.016Z,1.08
2023-03-22T07:59:31.399Z,1.10
2023-03-22T08:02:00.830Z,1.10
2023-03-22T08:04:30.859Z,0.90
2023-03-22T08:07:00.046Z,0.98
2023-03-22T08:09:28.290Z,0.90
2023-03-22T08:11:56.194Z,0.88
2023-03-22T08:14:35.450Z,0.80
2023-03-22T08:17:05.807Z,1.02
2023-03-22T08:19:34.192Z,0.80
2023-03-22T08:22:02.313Z,0.82
2023-03-22T08:24:30.278Z,0.80
2023-03-22T08:26:58.032Z,1.00
2023-03-22T08:29:25.777Z,0.80
2023-03-22T08:31:54.125Z,0.80
2023-03-22T08:34:23.268Z,0.88
2023-03-22T08:36:51.246Z,1.02
2023-03-22T08:39:19.107Z,0.70
2023-03-22T08:41:46.872Z,1.00
2023-03-22T08:44:14.777Z,0.85
2023-03-22T08:46:42.747Z,1.00
2023-03-22T08:49:11.020Z,0.70
2023-03-22T08:51:40.949Z,0.95
2023-03-22T08:54:08.919Z,0.80
2023-03-22T08:56:38.196Z,0.88
2023-03-22T08:59:06.864Z,1.10
2023-03-22T09:01:34.807Z,1.00
2023-03-22T09:04:03.120Z,1.00
2023-03-22T09:06:31.341Z,0.80
2023-03-22T09:09:00.653Z,0.93
2023-03-22T09:11:29.007Z,0.77
2023-03-22T09:13:56.677Z,0.80
2023-03-22T09:16:24.685Z,0.90
2023-03-22T09:18:52.407Z,0.80
2023-03-22T09:21:21.794Z,0.70
2023-03-22T09:23:50.313Z,0.85
2023-03-22T09:26:19.752Z,0.80
2023-03-22T09:28:47.399Z,0.70
2023-03-22T09:31:15.407Z,0.70
2023-03-22T09:33:43.184Z,0.85
2023-03-22T09:36:12.602Z,0.60
2023-03-22T09:38:41.333Z,0.70
2023-03-22T09:41:15.872Z,0.80
2023-03-22T09:43:48.823Z,0.55
2023-03-22T09:46:19.362Z,0.77
2023-03-22T09:48:49.819Z,0.60
2023-03-22T09:51:32.018Z,0.70
2023-03-22T09:54:00.148Z,0.70
2023-03-22T09:56:30.527Z,0.80
2023-03-22T09:59:07.469Z,0.63
2023-03-22T10:01:47.333Z,0.70
2023-03-22T10:04:35.674Z,0.70
2023-03-22T10:07:10.822Z,0.75
2023-03-22T10:09:44.854Z,0.77
2023-03-22T10:12:21.439Z,0.80
2023-03-22T10:14:59.029Z,0.70
2023-03-22T10:17:29.832Z,0.70
2023-03-22T10:20:01.803Z,0.63
2023-03-22T10:22:34.451Z,0.60
2023-03-22T10:25:03.857Z,0.77
2023-03-22T10:27:32.919Z,0.70
2023-03-22T10:30:07.959Z,0.70
2023-03-22T10:32:54.943Z,0.67
2023-03-22T10:35:25.513Z,0.60
2023-03-22T10:37:55.906Z,0.50
2023-03-22T10:40:27.240Z,0.60
2023-03-22T10:42:57.646Z,0.60
2023-03-22T10:45:28.862Z,0.70
2023-03-22T10:48:01.881Z,0.60
2023-03-22T10:50:33.060Z,0.90
2023-03-22T10:53:05.752Z,0.55
2023-03-22T10:55:33.622Z,0.60
2023-03-22T10:58:13.434Z,0.70
2023-03-22T11:00:47.168Z,0.60
2023-03-22T11:03:31.676Z,0.65
2023-03-22T11:06:04.324Z,0.60
2023-03-22T11:08:40.065Z,0.70
2023-03-22T11:11:15.591Z,0.60
2023-03-22T11:13:45.380Z,0.70
2023-03-22T11:16:18.538Z,0.70
2023-03-22T11:18:46.348Z,0.63
2023-03-22T11:21:17.620Z,0.70
2023-03-22T11:23:53.920Z,0.50
2023-03-22T11:26:28.526Z,0.68
2023-03-22T11:29:03.003Z,0.63
2023-03-22T11:31:50.155Z,0.60
2023-03-22T11:34:20.346Z,0.63
2023-03-22T11:36:54.711Z,0.90
2023-03-22T11:39:22.928Z,0.73
2023-03-22T11:41:50.608Z,0.70
2023-03-22T11:44:21.615Z,0.80
2023-03-22T11:46:58.214Z,0.60
2023-03-22T11:49:32.831Z,0.53
2023-03-22T11:52:09.886Z,0.70
2023-03-22T11:54:40.153Z,0.60
2023-03-22T11:57:14.463Z,0.68
2023-03-22T11:59:48.379Z,0.70
2023-03-22T12:02:23.540Z,0.70
2023-03-22T12:04:57.259Z,0.80
2023-03-22T12:07:26.534Z,0.80
2023-03-22T12:10:00.269Z,0.80
2023-03-22T12:12:32.004Z,0.70
2023-03-22T12:15:03.605Z,0.73
2023-03-22T12:17:38.538Z,0.90
2023-03-22T12:20:17.344Z,0.90
2023-03-22T12:22:51.323Z,1.00
2023-03-22T12:25:24.254Z,0.73
2023-03-22T12:27:55.596Z,0.90
2023-03-22T12:30:26.546Z,0.70
2023-03-22T12:33:03.701Z,0.70
2023-03-22T12:35:34.446Z,0.80
2023-03-22T12:38:09.798Z,0.70
2023-03-22T12:40:42.052Z,0.90
2023-03-22T12:43:16.986Z,0.60
2023-03-22T12:45:49.528Z,0.65
2023-03-22T12:48:21.871Z,0.70
2023-03-22T12:50:54.081Z,0.70
2023-03-22T12:53:23.878Z,0.70
2023-03-22T12:55:52.436Z,0.70
2023-03-22T12:58:23.310Z,0.85
2023-03-22T13:00:56.092Z,0.70
2023-03-22T13:03:40.312Z,0.77
2023-03-22T13:06:34.501Z,0.75
2023-03-22T13:09:15.548Z,0.80
2023-03-22T13:11:44.348Z,0.80
2023-03-22T13:14:49.640Z,0.80
2023-03-22T13:17:38.892Z,0.70
2023-03-22T13:20:27.834Z,0.65
2023-03-22T13:23:25.820Z,0.70
2023-03-22T13:26:03.387Z,0.70
2023-03-22T13:28:37.165Z,0.70
2023-03-22T13:31:05.828Z,0.70
2023-03-22T13:33:36.480Z,0.70
2023-03-22T13:36:08.488Z,0.70
2023-03-22T13:38:42.374Z,0.80
2023-03-22T13:41:21.926Z,0.70
2023-03-22T13:43:51.491Z,0.60
2023-03-22T13:46:46.802Z,0.70
2023-03-22T13:49:26.849Z,0.80
2023-03-22T13:51:57.243Z,0.75
2023-03-22T13:54:36.462Z,0.60
2023-03-22T13:57:04.489Z,0.73
2023-03-22T14:00:08.909Z,0.80
2023-03-22T14:02:43.048Z,0.70
2023-03-22T14:05:17.596Z,0.77
2023-03-22T14:07:49.916Z,0.70
2023-03-22T14:10:22.571Z,0.85
2023-03-22T14:12:53.072Z,0.77
2023-03-22T14:15:24.632Z,0.90
2023-03-22T14:18:00.641Z,1.00
2023-03-22T14:20:33.617Z,0.80
